createdAt,value
2023-10-18T00:01:13.808Z,10.37
2023-10-18T00:03:43.833Z,13.40
2023-10-18T00:06:17.338Z,11.10
2023-10-18T00:08:47.232Z,10.50
2023-10-18T00:11:16.718Z,11.00
2023-10-18T00:13:46.365Z,12.17
2023-10-18T00:16:15.213Z,11.80
2023-10-18T00:18:44.937Z,11.73
2023-10-18T00:21:13.544Z,11.87
2023-10-18T00:23:42.092Z,11.13
2023-10-18T00:26:12.452Z,14.00
2023-10-18T00:28:41.626Z,10.93
2023-10-18T00:31:14.228Z,9.37
2023-10-18T00:33:44.423Z,12.57
2023-10-18T00:36:13.092Z,10.47
2023-10-18T00:38:43.088Z,10.80
2023-10-18T00:41:16.138Z,10.90
2023-10-18T00:43:46.681Z,12.40
2023-10-18T00:46:16.591Z,11.23
2023-10-18T00:48:47.140Z,9.70
2023-10-18T00:51:19.468Z,11.10
2023-10-18T00:53:49.128Z,13.83
2023-10-18T00:56:17.877Z,10.73
2023-10-18T00:58:48.635Z,12.33
2023-10-18T01:01:19.547Z,12.97
2023-10-18T01:03:53.227Z,11.63
2023-10-18T01:06:25.994Z,10.30
2023-10-18T01:08:55.212Z,13.00
2023-10-18T01:11:28.797Z,13.67
2023-10-18T01:13:58.057Z,11.13
2023-10-18T01:16:29.498Z,14.70
2023-10-18T01:18:59.621Z,13.53
2023-10-18T01:21:29.053Z,13.50
2023-10-18T01:24:01.193Z,16.50
2023-10-18T01:26:33.141Z,14.20
2023-10-18T01:29:06.097Z,13.53
2023-10-18T01:31:35.147Z,13.00
2023-10-18T01:34:11.851Z,14.73
2023-10-18T01:36:43.416Z,14.07
2023-10-18T01:39:20.190Z,14.70
2023-10-18T01:41:55.663Z,16.27
2023-10-18T01:44:31.841Z,13.20
2023-10-18T01:47:06.568Z,14.57
2023-10-18T01:49:39.703Z,13.20
2023-10-18T01:52:09.781Z,13.40
2023-10-18T01:54:39.755Z,15.73
2023-10-18T01:57:13.388Z,13.67
2023-10-18T01:59:42.278Z,11.40
2023-10-18T02:02:12.747Z,15.50
2023-10-18T02:04:52.977Z,14.50
2023-10-18T02:07:23.291Z,12.70
2023-10-18T02:09:54.120Z,15.17
2023-10-18T02:12:24.762Z,18.77
2023-10-18T02:14:53.954Z,15.70
2023-10-18T02:17:23.140Z,15.47
2023-10-18T02:19:52.139Z,15.23
2023-10-18T02:22:20.863Z,17.00
2023-10-18T02:24:51.858Z,16.30
2023-10-18T02:27:21.416Z,13.73
2023-10-18T02:29:53.034Z,18.30
2023-10-18T02:32:33.119Z,18.90
2023-10-18T02:35:02.020Z,17.33
2023-10-18T02:37:33.163Z,24.93
2023-10-18T02:40:10.086Z,18.37
2023-10-18T02:42:39.108Z,17.53
2023-10-18T02:45:14.335Z,19.60
2023-10-18T02:47:43.898Z,23.90
2023-10-18T02:50:16.802Z,20.50
2023-10-18T02:52:47.446Z,21.83
2023-10-18T02:55:19.786Z,20.00
2023-10-18T02:57:49.485Z,18.10
2023-10-18T03:00:21.436Z,18.00
2023-10-18T03:02:51.608Z,15.97
2023-10-18T03:05:21.689Z,26.43
2023-10-18T03:07:50.419Z,16.53
2023-10-18T03:10:28.651Z,17.53
2023-10-18T03:12:59.773Z,14.70
2023-10-18T03:15:30.077Z,14.23
2023-10-18T03:18:01.498Z,16.33
2023-10-18T03:20:30.577Z,15.03
2023-10-18T03:23:03.647Z,16.27
2023-10-18T03:25:32.995Z,14.10
2023-10-18T03:28:05.968Z,16.73
2023-10-18T03:30:47.735Z,14.40
2023-10-18T03:33:16.999Z,15.27
2023-10-18T03:35:47.965Z,13.37
2023-10-18T03:38:18.834Z,13.40
2023-10-18T03:40:50.772Z,14.10
2023-10-18T03:43:27.604Z,12.93
2023-10-18T03:46:09.205Z,14.17
2023-10-18T03:48:42.000Z,14.63
2023-10-18T03:51:10.721Z,11.87
2023-10-18T03:53:40.230Z,14.40
2023-10-18T03:56:09.628Z,13.03
2023-10-18T03:58:40.084Z,15.33
2023-10-18T04:01:13.930Z,15.80
2023-10-18T04:03:42.731Z,13.50
2023-10-18T04:06:22.385Z,16.97
2023-10-18T04:08:51.221Z,13.77
2023-10-18T04:11:27.372Z,14.73
2023-10-18T04:13:55.726Z,12.07
2023-10-18T04:16:31.912Z,14.73
2023-10-18T04:19:01.137Z,11.93
2023-10-18T04:21:29.720Z,10.50
2023-10-18T04:23:58.726Z,10.20
2023-10-18T04:26:28.106Z,13.40
2023-10-18T04:28:59.322Z,11.60
2023-10-18T04:31:28.396Z,11.60
2023-10-18T04:33:58.631Z,14.83
2023-10-18T04:36:29.264Z,11.60
2023-10-18T04:38:59.021Z,9.83
2023-10-18T04:41:29.907Z,10.30
2023-10-18T04:44:05.772Z,12.07
2023-10-18T04:46:38.494Z,11.17
2023-10-18T04:49:33.043Z,11.67
2023-10-18T04:52:06.134Z,11.10
2023-10-18T04:54:39.578Z,11.40
2023-10-18T04:57:12.131Z,8.57
2023-10-18T04:59:53.818Z,13.57
2023-10-18T05:02:28.169Z,10.70
2023-10-18T05:04:58.389Z,12.50
2023-10-18T05:07:42.826Z,10.80
2023-10-18T05:10:17.217Z,10.30
2023-10-18T05:12:53.860Z,8.80
2023-10-18T05:15:32.795Z,9.37
2023-10-18T05:18:07.265Z,12.07
2023-10-18T05:20:53.672Z,9.30
2023-10-18T05:23:23.746Z,11.57
2023-10-18T05:25:58.242Z,9.43
2023-10-18T05:28:29.626Z,8.83
2023-10-18T05:31:15.807Z,7.77
2023-10-18T05:33:57.776Z,10.10
2023-10-18T05:36:36.214Z,13.07
2023-10-18T05:39:20.157Z,10.60
2023-10-18T05:41:50.721Z,10.50
2023-10-18T05:44:21.899Z,11.70
2023-10-18T05:46:52.239Z,10.23
2023-10-18T05:49:30.067Z,8.20
2023-10-18T05:52:17.506Z,11.30
2023-10-18T05:54:46.324Z,8.73
2023-10-18T05:57:20.482Z,9.83
2023-10-18T05:59:51.144Z,11.10
2023-10-18T06:02:25.463Z,9.30
2023-10-18T06:04:57.641Z,8.70
2023-10-18T06:07:27.837Z,13.93
2023-10-18T06:10:01.916Z,7.33
2023-10-18T06:12:32.063Z,8.37
2023-10-18T06:15:13.810Z,9.87
2023-10-18T06:17:49.327Z,9.87
2023-10-18T06:20:28.782Z,9.77
2023-10-18T06:23:09.944Z,9.97
2023-10-18T06:25:45.918Z,10.37
2023-10-18T06:28:21.958Z,14.03
2023-10-18T06:30:52.981Z,9.90
2023-10-18T06:33:22.594Z,15.80
2023-10-18T06:35:53.975Z,12.07
2023-10-18T06:38:24.595Z,10.83
2023-10-18T06:43:26.881Z,10.57
2023-10-18T06:45:56.000Z,11.47
2023-10-18T06:48:27.978Z,12.30
2023-10-18T06:50:59.170Z,9.70
2023-10-18T06:53:28.065Z,8.70
2023-10-18T06:56:02.451Z,10.10
2023-10-18T06:58:43.560Z,8.57
2023-10-18T07:01:21.697Z,9.90
2023-10-18T07:03:50.722Z,10.90
2023-10-18T07:06:25.162Z,9.90
2023-10-18T07:08:54.246Z,9.53
2023-10-18T07:11:34.798Z,13.23
2023-10-18T07:14:13.901Z,7.07
2023-10-18T07:16:43.810Z,10.03
2023-10-18T07:19:26.712Z,9.90
2023-10-18T07:21:57.033Z,10.43
2023-10-18T07:24:34.103Z,12.90
2023-10-18T07:27:05.218Z,13.13
2023-10-18T07:29:37.489Z,11.77
2023-10-18T07:32:14.315Z,10.93
2023-10-18T07:34:43.990Z,10.80
2023-10-18T07:37:24.609Z,8.97
2023-10-18T07:40:00.969Z,11.37
2023-10-18T07:42:36.082Z,9.37
2023-10-18T07:45:05.750Z,7.03
2023-10-18T07:47:39.069Z,10.83
2023-10-18T07:50:29.790Z,10.27
2023-10-18T07:53:00.020Z,8.87
2023-10-18T07:55:29.263Z,8.37
2023-10-18T07:57:58.693Z,8.43
2023-10-18T08:00:28.214Z,10.67
2023-10-18T08:02:57.697Z,10.23
2023-10-18T08:05:32.323Z,12.67
2023-10-18T08:08:10.080Z,9.53
2023-10-18T08:10:40.301Z,10.60
2023-10-18T08:13:09.745Z,9.63
2023-10-18T08:15:38.809Z,16.20
2023-10-18T08:18:17.203Z,9.33
2023-10-18T08:21:00.944Z,11.17
2023-10-18T08:23:40.401Z,10.23
2023-10-18T08:26:08.830Z,7.97
2023-10-18T08:28:42.984Z,9.57
2023-10-18T08:31:28.454Z,8.17
2023-10-18T08:33:57.823Z,7.83
2023-10-18T08:36:31.760Z,10.73
2023-10-18T08:39:02.923Z,13.80
2023-10-18T08:41:37.084Z,10.30
2023-10-18T08:44:17.305Z,12.10
2023-10-18T08:46:53.757Z,8.97
2023-10-18T08:49:33.482Z,8.07
2023-10-18T08:52:07.532Z,8.43
2023-10-18T08:54:40.580Z,9.13
2023-10-18T08:57:10.995Z,8.50
2023-10-18T08:59:47.421Z,7.80
2023-10-18T09:02:19.702Z,10.32
2023-10-18T09:04:49.595Z,8.90
2023-10-18T09:07:23.109Z,8.32
2023-10-18T09:09:57.352Z,8.85
2023-10-18T09:12:54.434Z,6.88
2023-10-18T09:15:29.994Z,7.63
2023-10-18T09:18:01.752Z,8.05
2023-10-18T09:20:30.946Z,5.75
2023-10-18T09:23:04.604Z,8.32
2023-10-18T09:25:48.996Z,7.72
2023-10-18T09:28:22.288Z,12.98
2023-10-18T09:30:51.170Z,8.05
2023-10-18T09:33:19.978Z,7.60
2023-10-18T09:35:50.519Z,8.77
2023-10-18T09:38:19.386Z,6.95
2023-10-18T09:40:49.902Z,9.52
2023-10-18T09:43:18.535Z,5.45
2023-10-18T09:45:47.175Z,7.72
2023-10-18T09:48:18.184Z,5.05
2023-10-18T09:50:48.954Z,5.72
2023-10-18T09:53:22.827Z,6.25
2023-10-18T09:55:54.321Z,10.73
2023-10-18T09:58:25.305Z,8.48
2023-10-18T10:00:58.520Z,8.50
2023-10-18T10:03:28.483Z,6.53
2023-10-18T10:05:58.902Z,5.50
2023-10-18T10:08:32.492Z,6.07
2023-10-18T10:11:14.808Z,7.00
2023-10-18T10:13:46.267Z,6.90
2023-10-18T10:16:16.318Z,10.88
2023-10-18T10:18:48.854Z,6.57
2023-10-18T10:21:22.501Z,11.95
2023-10-18T10:23:56.445Z,7.15
2023-10-18T10:26:33.152Z,9.63
2023-10-18T10:29:35.128Z,6.05
2023-10-18T10:32:06.855Z,9.70
2023-10-18T10:34:39.496Z,9.65
2023-10-18T10:37:14.314Z,6.90
2023-10-18T10:39:51.110Z,7.75
2023-10-18T10:42:43.084Z,7.97
2023-10-18T10:45:25.062Z,9.90
2023-10-18T10:47:53.941Z,7.82
2023-10-18T10:50:44.089Z,8.50
2023-10-18T10:53:12.902Z,9.98
2023-10-18T10:55:41.535Z,7.07
2023-10-18T10:58:18.377Z,8.73
2023-10-18T11:01:06.046Z,7.50
2023-10-18T11:03:54.617Z,6.22
2023-10-18T11:06:24.706Z,7.70
2023-10-18T11:08:55.004Z,7.85
2023-10-18T11:11:23.902Z,5.03
2023-10-18T11:13:54.041Z,9.15
2023-10-18T11:16:23.269Z,7.20
2023-10-18T11:18:54.265Z,7.90
2023-10-18T11:21:25.809Z,6.13
2023-10-18T11:23:58.503Z,5.78
2023-10-18T11:26:28.820Z,6.95
2023-10-18T11:29:00.477Z,6.88
2023-10-18T11:31:29.814Z,9.45
2023-10-18T11:34:06.841Z,7.95
2023-10-18T11:36:36.136Z,8.80
2023-10-18T11:39:19.690Z,7.32
2023-10-18T11:41:53.717Z,9.05
2023-10-18T11:44:32.620Z,6.72
2023-10-18T11:47:13.154Z,6.82
2023-10-18T11:49:42.974Z,12.30
2023-10-18T11:52:17.983Z,8.82
2023-10-18T11:54:48.850Z,8.00
2023-10-18T11:57:30.762Z,8.85
2023-10-18T12:00:15.667Z,6.07
2023-10-18T12:02:45.378Z,6.63
2023-10-18T12:05:16.302Z,7.05
2023-10-18T12:07:47.361Z,9.95
2023-10-18T12:10:19.039Z,7.80
2023-10-18T12:12:50.968Z,10.38
2023-10-18T12:15:20.981Z,4.88
2023-10-18T12:17:50.554Z,7.53
2023-10-18T12:20:26.981Z,13.45
2023-10-18T12:22:55.605Z,9.77
2023-10-18T12:25:24.216Z,6.22
2023-10-18T12:27:54.081Z,9.73
2023-10-18T12:30:34.379Z,8.07
2023-10-18T12:33:07.375Z,8.73
2023-10-18T12:35:38.813Z,6.55
2023-10-18T12:38:15.018Z,6.45
2023-10-18T12:40:53.557Z,8.13
2023-10-18T12:43:22.480Z,7.13
2023-10-18T12:45:53.310Z,8.55
2023-10-18T12:48:24.693Z,7.55
2023-10-18T12:50:54.010Z,5.60
2023-10-18T12:53:43.219Z,7.75
2023-10-18T12:56:34.065Z,7.00
2023-10-18T12:59:23.842Z,9.60
2023-10-18T13:02:00.153Z,6.50
2023-10-18T13:04:28.420Z,4.80
2023-10-18T13:06:56.927Z,7.65
2023-10-18T13:09:24.623Z,8.80
2023-10-18T13:12:11.070Z,9.30
2023-10-18T13:14:40.890Z,5.85
2023-10-18T13:17:12.337Z,7.78
2023-10-18T13:19:45.209Z,5.22
2023-10-18T13:22:19.754Z,9.95
2023-10-18T13:24:49.139Z,7.47
2023-10-18T13:27:19.872Z,6.35
2023-10-18T13:30:01.748Z,7.35
2023-10-18T13:32:34.095Z,9.57
2023-10-18T13:35:13.932Z,7.95
2023-10-18T13:37:43.216Z,6.85
2023-10-18T13:40:20.017Z,10.93
2023-10-18T13:42:50.958Z,8.38
2023-10-18T13:45:19.471Z,6.45
2023-10-18T13:47:49.236Z,10.20
2023-10-18T13:50:18.926Z,7.95
2023-10-18T13:52:49.027Z,10.07
2023-10-18T13:55:19.337Z,9.48
2023-10-18T13:57:48.387Z,7.18
2023-10-18T14:00:19.757Z,9.50
2023-10-18T14:02:49.660Z,8.90
2023-10-18T14:05:20.717Z,7.03
2023-10-18T14:07:49.566Z,10.48
2023-10-18T14:10:29.971Z,9.55
2023-10-18T14:12:58.516Z,5.15
2023-10-18T14:15:26.918Z,8.57
2023-10-18T14:17:57.021Z,6.10
2023-10-18T14:20:27.324Z,7.15
2023-10-18T14:22:56.876Z,8.75
2023-10-18T14:25:25.810Z,10.70
2023-10-18T14:27:54.481Z,8.70
2023-10-18T14:30:23.582Z,7.65
2023-10-18T14:32:52.222Z,9.60
2023-10-18T14:35:22.296Z,7.75
2023-10-18T14:37:50.747Z,5.22
2023-10-18T14:40:24.785Z,8.40
2023-10-18T14:42:53.746Z,6.95
2023-10-18T14:45:22.284Z,8.15
2023-10-18T14:47:54.232Z,8.98
2023-10-18T14:50:24.316Z,8.07
2023-10-18T14:52:52.898Z,7.53
2023-10-18T14:55:21.412Z,8.82
2023-10-18T14:57:49.844Z,8.50
2023-10-18T15:00:22.425Z,8.88
2023-10-18T15:02:53.939Z,8.88
2023-10-18T15:05:23.877Z,10.77
2023-10-18T15:07:53.426Z,9.13
2023-10-18T15:10:24.844Z,10.63
2023-10-18T15:12:55.335Z,9.93
2023-10-18T15:15:24.364Z,10.73
2023-10-18T15:17:56.777Z,9.15
2023-10-18T15:20:28.005Z,9.60
2023-10-18T15:22:58.463Z,11.77
2023-10-18T15:25:27.251Z,10.10
2023-10-18T15:27:55.814Z,11.27
2023-10-18T15:30:26.175Z,10.55
2023-10-18T15:32:54.746Z,9.32
2023-10-18T15:35:23.414Z,9.35
2023-10-18T15:37:53.258Z,13.27
2023-10-18T15:40:23.520Z,7.43
2023-10-18T15:42:53.190Z,9.80
2023-10-18T15:45:21.674Z,8.77
2023-10-18T15:47:51.445Z,7.53
2023-10-18T15:50:20.376Z,9.13
2023-10-18T15:52:49.243Z,9.27
2023-10-18T15:55:19.474Z,9.13
2023-10-18T15:57:48.020Z,11.48
2023-10-18T16:00:25.141Z,10.10
2023-10-18T16:02:57.782Z,8.73
2023-10-18T16:05:27.180Z,7.95
2023-10-18T16:07:56.330Z,6.90
2023-10-18T16:10:26.420Z,8.00
2023-10-18T16:12:54.850Z,9.48
2023-10-18T16:15:25.314Z,12.32
2023-10-18T16:17:54.253Z,12.10
2023-10-18T16:20:24.791Z,10.10
2023-10-18T16:22:53.317Z,9.48
2023-10-18T16:25:21.744Z,9.35
2023-10-18T16:27:53.242Z,9.77
2023-10-18T16:30:22.376Z,8.68
2023-10-18T16:32:50.974Z,9.88
2023-10-18T16:35:19.654Z,14.40
2023-10-18T16:37:49.224Z,10.52
2023-10-18T16:40:19.816Z,7.25
2023-10-18T16:42:49.093Z,8.73
2023-10-18T16:45:21.175Z,7.55
2023-10-18T16:47:49.837Z,9.18
2023-10-18T16:50:20.273Z,11.32
2023-10-18T16:52:48.723Z,10.45
2023-10-18T16:55:19.118Z,12.32
2023-10-18T16:57:49.696Z,11.45
2023-10-18T17:00:19.687Z,11.13
2023-10-18T17:02:53.785Z,14.32
2023-10-18T17:05:25.451Z,13.98
2023-10-18T17:07:54.422Z,11.15
2023-10-18T17:10:23.112Z,11.98
2023-10-18T17:12:52.331Z,11.65
2023-10-18T17:15:22.179Z,15.77
2023-10-18T17:17:51.770Z,10.88
2023-10-18T17:20:21.476Z,10.68
2023-10-18T17:22:50.091Z,8.25
2023-10-18T17:25:18.583Z,11.32
2023-10-18T17:27:47.916Z,8.00
2023-10-18T17:30:18.272Z,10.15
2023-10-18T17:32:48.329Z,10.90
2023-10-18T17:35:17.775Z,9.98
2023-10-18T17:37:48.005Z,7.25
2023-10-18T17:40:18.266Z,9.10
2023-10-18T17:42:47.194Z,10.40
2023-10-18T17:45:17.287Z,11.57
2023-10-18T17:47:47.648Z,12.15
2023-10-18T17:50:18.782Z,10.70
2023-10-18T17:52:49.240Z,12.82
2023-10-18T17:55:19.009Z,10.35
2023-10-18T17:57:48.460Z,8.48
2023-10-18T18:00:26.401Z,8.70
2023-10-18T18:02:57.126Z,7.85
2023-10-18T18:05:26.506Z,8.48
2023-10-18T18:07:55.697Z,7.60
2023-10-18T18:10:26.618Z,9.88
2023-10-18T18:12:58.617Z,5.95
2023-10-18T18:15:27.246Z,7.05
2023-10-18T18:17:57.323Z,7.68
2023-10-18T18:20:25.883Z,9.85
2023-10-18T18:22:54.448Z,8.00
2023-10-18T18:25:24.478Z,10.55
2023-10-18T18:27:52.936Z,6.07
2023-10-18T18:30:21.469Z,6.50
2023-10-18T18:32:50.065Z,6.60
2023-10-18T18:35:20.434Z,7.32
2023-10-18T18:37:49.166Z,9.73
2023-10-18T18:40:20.705Z,7.95
2023-10-18T18:42:49.371Z,8.27
2023-10-18T18:45:20.507Z,8.60
2023-10-18T18:47:49.311Z,10.43
2023-10-18T18:50:19.793Z,7.53
2023-10-18T18:52:51.653Z,6.45
2023-10-18T18:55:21.165Z,7.72
2023-10-18T18:57:51.481Z,5.78
2023-10-18T19:00:21.667Z,7.07
2023-10-18T19:02:51.552Z,5.78
2023-10-18T19:05:22.460Z,7.25
2023-10-18T19:07:51.423Z,7.93
2023-10-18T19:10:21.498Z,8.77
2023-10-18T19:12:52.259Z,9.15
2023-10-18T19:15:22.870Z,9.98
2023-10-18T19:17:52.470Z,11.32
2023-10-18T19:20:23.969Z,10.63
2023-10-18T19:22:55.419Z,7.78
2023-10-18T19:25:23.923Z,10.40
2023-10-18T19:27:52.547Z,9.88
2023-10-18T19:30:21.821Z,11.07
2023-10-18T19:32:50.776Z,14.48
2023-10-18T19:35:19.484Z,11.25
2023-10-18T19:37:49.877Z,11.07
2023-10-18T19:40:18.449Z,9.68
2023-10-18T19:42:46.906Z,10.75
2023-10-18T19:45:19.208Z,9.25
2023-10-18T19:47:48.022Z,11.68
2023-10-18T19:50:16.846Z,10.98
2023-10-18T19:52:45.352Z,10.75
2023-10-18T19:55:15.160Z,10.10
2023-10-18T19:57:43.678Z,9.52
2023-10-18T20:00:16.413Z,7.35
2023-10-18T20:02:45.444Z,9.45
2023-10-18T20:05:15.497Z,8.18
2023-10-18T20:07:44.041Z,10.63
2023-10-18T20:10:14.751Z,8.00
2023-10-18T20:12:43.152Z,6.72
2023-10-18T20:15:12.319Z,10.60
2023-10-18T20:17:41.399Z,8.60
2023-10-18T20:20:11.033Z,9.40
2023-10-18T20:22:44.798Z,7.43
2023-10-18T20:25:15.198Z,6.60
2023-10-18T20:27:43.937Z,6.82
2023-10-18T20:30:14.299Z,6.88
2023-10-18T20:32:44.066Z,8.00
2023-10-18T20:35:13.605Z,6.72
2023-10-18T20:37:42.748Z,7.57
2023-10-18T20:40:12.464Z,7.93
2023-10-18T20:42:42.557Z,6.57
2023-10-18T20:45:13.264Z,9.45
2023-10-18T20:47:44.103Z,6.78
2023-10-18T20:50:19.085Z,6.75
2023-10-18T20:52:48.122Z,7.35
2023-10-18T20:55:17.643Z,6.30
2023-10-18T20:57:47.265Z,7.10
2023-10-18T21:00:24.575Z,8.73
2023-10-18T21:02:55.170Z,7.38
2023-10-18T21:05:29.561Z,6.07
2023-10-18T21:07:59.114Z,6.80
2023-10-18T21:10:31.221Z,6.32
2023-10-18T21:13:01.777Z,5.85
2023-10-18T21:15:30.966Z,6.18
2023-10-18T21:17:59.953Z,5.50
2023-10-18T21:20:28.428Z,5.10
2023-10-18T21:22:58.266Z,5.32
2023-10-18T21:25:26.855Z,6.07
2023-10-18T21:27:55.943Z,4.32
2023-10-18T21:30:27.464Z,6.30
2023-10-18T21:32:56.340Z,5.15
2023-10-18T21:35:25.317Z,5.28
2023-10-18T21:37:53.741Z,4.68
2023-10-18T21:40:22.587Z,5.20
2023-10-18T21:42:51.349Z,4.63
2023-10-18T21:45:20.308Z,5.07
2023-10-18T21:47:50.260Z,6.60
2023-10-18T21:50:18.928Z,5.32
2023-10-18T21:52:47.382Z,6.80
2023-10-18T21:55:15.999Z,4.70
2023-10-18T21:57:44.504Z,6.53
2023-10-18T22:00:24.109Z,5.90
2023-10-18T22:02:53.789Z,4.90
2023-10-18T22:05:28.025Z,6.40
2023-10-18T22:08:00.333Z,5.53
2023-10-18T22:10:43.013Z,5.00
2023-10-18T22:13:11.835Z,1.92
2023-10-18T22:15:48.193Z,2.70
2023-10-18T22:18:21.133Z,3.80
2023-10-18T22:20:51.227Z,3.30
2023-10-18T22:23:21.540Z,1.45
2023-10-18T22:26:13.598Z,1.60
2023-10-18T22:28:43.872Z,1.15
2023-10-18T22:31:12.763Z,1.25
2023-10-18T22:33:42.515Z,2.13
2023-10-18T22:36:13.598Z,0.88
2023-10-18T22:38:42.763Z,0.60
2023-10-18T22:41:14.438Z,2.22
2023-10-18T22:43:43.010Z,0.95
2023-10-18T22:46:33.985Z,1.55
2023-10-18T22:49:10.037Z,1.25
2023-10-18T22:51:46.006Z,0.90
2023-10-18T22:54:14.798Z,0.73
2023-10-18T22:56:54.935Z,2.80
2023-10-18T22:59:23.893Z,2.95
2023-10-18T23:01:52.888Z,2.65
2023-10-18T23:04:25.860Z,4.38
2023-10-18T23:06:58.731Z,1.92
2023-10-18T23:09:28.056Z,2.85
2023-10-18T23:11:59.061Z,3.60
2023-10-18T23:14:28.617Z,6.15
2023-10-18T23:17:12.681Z,2.70
2023-10-18T23:19:46.514Z,4.18
2023-10-18T23:22:21.125Z,3.70
2023-10-18T23:24:50.826Z,1.63
2023-10-18T23:27:45.544Z,2.78
2023-10-18T23:30:20.277Z,5.57
2023-10-18T23:32:59.457Z,5.15
2023-10-18T23:35:31.132Z,3.45
2023-10-18T23:38:10.748Z,2.28
2023-10-18T23:40:54.070Z,3.80
2023-10-18T23:43:47.473Z,2.45
2023-10-18T23:46:35.733Z,5.55
2023-10-18T23:49:28.503Z,6.50
2023-10-18T23:52:17.760Z,5.35
2023-10-18T23:54:52.370Z,5.40
2023-10-18T23:57:24.165Z,8.25
2023-10-18T23:59:53.075Z,3.85
